Time;durP1;ratioP1;P1;durP2;ratioP2;P2;SDS_P1;SDS_P2;PMS_P1;PMS_P2;Temp;Humidity;BMP_temperature;BMP_pressure;BME280_temperature;BME280_humidity;BME280_pressure;Samples;Min_cycle;Max_cycle;Signal;HPM_P1;HPM_P2
2023/07/27 00:02:43;;;;;;;1.40;0.47;;;;;;;21.91;100.00;100969.59;10455505;28;20092;-75
2023/07/27 00:07:45;;;;;;;0.95;0.45;;;;;;;22.26;100.00;100975.84;10444363;28;20087;-75
2023/07/27 00:12:47;;;;;;;0.00;0.00;;;;;;;21.56;100.00;100972.81;10445242;28;20060;-76
2023/07/27 00:17:49;;;;;;;0.00;0.00;;;;;;;21.54;100.00;100963.25;10442692;28;20064;-76
2023/07/27 00:22:50;;;;;;;0.38;0.10;;;;;;;21.50;100.00;100959.84;10443796;28;20041;-78
2023/07/27 00:27:52;;;;;;;0.00;0.00;;;;;;;21.43;100.00;100949.50;10458856;28;20482;-77
2023/07/27 00:32:54;;;;;;;0.00;0.00;;;;;;;21.68;100.00;100949.94;10497396;28;20094;-78
2023/07/27 00:37:57;;;;;;;0.00;0.00;;;;;;;21.44;100.00;100941.63;10497672;28;20245;-77
2023/07/27 00:42:59;;;;;;;0.10;0.10;;;;;;;22.13;100.00;100931.53;10509597;28;20516;-77
2023/07/27 00:48:00;;;;;;;2.42;0.20;;;;;;;21.61;100.00;100927.34;10487416;28;20403;-77
2023/07/27 00:53:06;;;;;;;0.00;0.00;;;;;;;21.33;100.00;100933.09;10467689;28;20049;-76
2023/07/27 00:58:08;;;;;;;0.00;0.00;;;;;;;21.66;100.00;100925.50;10467071;28;20067;-77
2023/07/27 01:03:10;;;;;;;0.22;0.10;;;;;;;21.23;100.00;100921.91;10489328;28;20044;-77
2023/07/27 01:08:12;;;;;;;4.68;0.10;;;;;;;20.72;100.00;100912.28;10491211;28;20472;-77
2023/07/27 01:13:26;;;;;;;0.40;0.20;;;;;;;20.69;100.00;100917.56;10470388;28;20445;-76
2023/07/27 01:18:39;;;;;;;0.52;0.25;;;;;;;20.87;100.00;100912.06;10524822;28;20052;-76
2023/07/27 01:24:17;;;;;;;2.42;0.77;;;;;;;21.16;100.00;100915.94;10481273;28;20058;-77
2023/07/27 01:29:42;;;;;;;0.70;0.63;;;;;;;21.13;100.00;100909.88;10465533;28;20052;-77
2023/07/27 01:34:51;;;;;;;0.32;0.32;;;;;;;21.33;100.00;100901.66;10438835;28;20143;-77
2023/07/27 01:39:54;;;;;;;0.32;0.10;;;;;;;21.26;100.00;100906.13;10482365;28;20411;-76
2023/07/27 01:44:57;;;;;;;0.52;0.30;;;;;;;20.94;100.00;100906.72;10465460;28;20052;-77
2023/07/27 01:49:59;;;;;;;0.30;0.10;;;;;;;20.98;100.00;100895.28;10481696;28;20044;-77
2023/07/27 01:55:02;;;;;;;0.75;0.75;;;;;;;21.18;100.00;100887.94;10481511;28;20399;-76
2023/07/27 02:00:05;;;;;;;0.63;0.30;;;;;;;21.39;100.00;100891.06;10439947;28;20083;-76
2023/07/27 02:05:15;;;;;;;0.28;0.17;;;;;;;21.09;100.00;100888.13;10463376;28;20080;-76
2023/07/27 02:10:20;;;;;;;1.13;0.43;;;;;;;21.22;100.00;100879.13;10488312;28;20067;-77
2023/07/27 02:15:35;;;;;;;0.35;0.30;;;;;;;21.29;100.00;100874.66;10540347;28;20074;-77
2023/07/27 02:20:39;;;;;;;0.28;0.20;;;;;;;21.53;100.00;100864.53;10503880;28;20048;-77
2023/07/27 02:25:40;;;;;;;0.35;0.10;;;;;;;21.97;100.00;100854.91;10480196;28;20053;-77
2023/07/27 02:30:42;;;;;;;0.52;0.30;;;;;;;21.30;100.00;100859.78;10479635;28;20071;-77
2023/07/27 02:35:44;;;;;;;0.52;0.10;;;;;;;21.62;100.00;100850.44;10463627;28;20496;-77
2023/07/27 02:40:46;;;;;;;0.30;0.13;;;;;;;20.97;100.00;100849.03;10479516;28;20041;-78
2023/07/27 02:45:48;;;;;;;0.52;0.20;;;;;;;21.17;100.00;100844.31;10463921;28;20079;-77
2023/07/27 02:50:51;;;;;;;0.00;0.00;;;;;;;20.87;100.00;100846.59;10480277;28;20053;-78
2023/07/27 02:56:01;;;;;;;0.35;0.35;;;;;;;20.69;100.00;100844.25;10480188;28;20084;-77
2023/07/27 03:01:10;;;;;;;0.73;0.28;;;;;;;20.89;100.00;100839.56;10479966;28;20488;-77
2023/07/27 03:06:12;;;;;;;0.05;0.05;;;;;;;20.83;100.00;100823.97;10423976;28;20555;-78
2023/07/27 03:11:20;;;;;;;0.22;0.22;;;;;;;21.47;100.00;100822.75;10469395;28;20055;-77
2023/07/27 03:16:22;;;;;;;0.85;0.38;;;;;;;21.64;100.00;100818.06;10462571;28;20546;-77
2023/07/27 03:21:24;;;;;;;0.22;0.20;;;;;;;21.79;100.00;100801.09;10479506;28;20043;-77
2023/07/27 03:26:26;;;;;;;0.80;0.28;;;;;;;20.98;100.00;100806.25;10462696;28;20051;-77
2023/07/27 03:31:28;;;;;;;1.92;1.42;;;;;;;21.02;100.00;100792.22;10478107;28;20086;-77
2023/07/27 03:36:31;;;;;;;0.52;0.45;;;;;;;21.05;100.00;100781.66;10478797;28;20051;-78
2023/07/27 03:41:33;;;;;;;0.85;0.65;;;;;;;21.06;100.00;100772.91;10462014;28;20136;-78
2023/07/27 03:46:34;;;;;;;10.77;0.82;;;;;;;20.53;100.00;100768.63;10478281;28;20143;-78
2023/07/27 03:51:38;;;;;;;0.20;0.20;;;;;;;20.97;100.00;100766.09;10527296;28;20032;-79
2023/07/27 03:56:40;;;;;;;1.48;0.60;;;;;;;21.37;100.00;100756.56;10544875;28;20237;-78
2023/07/27 04:01:42;;;;;;;0.85;0.40;;;;;;;21.42;100.00;100744.22;10492653;28;20506;-79
2023/07/27 04:06:43;;;;;;;0.55;0.43;;;;;;;20.60;100.00;100741.44;10509176;28;20482;-79
2023/07/27 04:11:45;;;;;;;0.35;0.22;;;;;;;21.04;100.00;100727.53;10511032;28;20044;-80
2023/07/27 04:16:47;;;;;;;0.52;0.38;;;;;;;20.85;100.00;100717.47;10527486;28;20048;-79
2023/07/27 04:21:49;;;;;;;0.17;0.15;;;;;;;20.40;100.00;100704.31;10527278;28;20048;-80
2023/07/27 04:26:50;;;;;;;0.40;0.40;;;;;;;20.34;100.00;100689.59;10526665;28;20127;-79
2023/07/27 04:31:52;;;;;;;1.92;0.38;;;;;;;20.63;100.00;100689.94;10526251;28;20046;-79
2023/07/27 04:36:53;;;;;;;0.35;0.35;;;;;;;20.14;100.00;100692.59;10526220;28;20134;-79
2023/07/27 04:41:55;;;;;;;0.80;0.60;;;;;;;20.45;100.00;100678.91;10509215;28;20513;-79
2023/07/27 04:46:58;;;;;;;0.73;0.60;;;;;;;20.56;100.00;100671.75;10509359;28;20050;-80
2023/07/27 04:51:59;;;;;;;1.00;0.57;;;;;;;19.87;100.00;100673.84;10508998;28;20090;-79
2023/07/27 04:57:01;;;;;;;0.65;0.38;;;;;;;20.64;100.00;100650.63;10534385;28;20082;-80
2023/07/27 05:02:03;;;;;;;0.45;0.32;;;;;;;20.21;100.00;100641.88;10525105;28;20050;-80
2023/07/27 05:07:05;;;;;;;0.25;0.25;;;;;;;20.07;100.00;100628.16;10524979;28;20044;-79
2023/07/27 05:12:07;;;;;;;1.17;0.45;;;;;;;20.09;100.00;100613.31;10524986;28;20032;-80
2023/07/27 05:17:08;;;;;;;0.55;0.45;;;;;;;20.44;100.00;100596.97;10542582;28;20514;-80
2023/07/27 05:22:10;;;;;;;1.73;1.63;;;;;;;20.29;100.00;100592.03;10542309;28;20384;-80
2023/07/27 05:27:11;;;;;;;0.10;0.10;;;;;;;20.10;100.00;100596.75;10524754;28;20036;-80
2023/07/27 05:32:13;;;;;;;2.33;0.68;;;;;;;20.25;100.00;100579.91;10523407;28;20075;-80
2023/07/27 05:37:15;;;;;;;0.20;0.20;;;;;;;20.41;100.00;100575.22;10506821;28;20063;-80
2023/07/27 05:42:16;;;;;;;0.75;0.45;;;;;;;19.99;100.00;100577.78;10523316;28;20040;-80
2023/07/27 05:47:18;;;;;;;0.88;0.40;;;;;;;20.71;100.00;100559.78;10541027;28;20044;-80
2023/07/27 05:52:20;;;;;;;0.00;0.00;;;;;;;20.49;100.00;100552.38;10523102;28;20100;-80
2023/07/27 05:57:22;;;;;;;0.22;0.17;;;;;;;20.35;100.00;100543.97;10541033;28;20044;-81
2023/07/27 06:02:23;;;;;;;0.43;0.30;;;;;;;20.33;100.00;100545.75;10522928;28;20040;-80
2023/07/27 06:07:26;;;;;;;0.85;0.20;;;;;;;21.01;100.00;100546.91;10509954;28;20106;-81
2023/07/27 06:12:27;;;;;;;0.22;0.15;;;;;;;20.98;100.00;100531.28;10521612;28;20046;-82
2023/07/27 06:17:29;;;;;;;0.20;0.20;;;;;;;20.73;100.00;100534.47;10539314;28;20048;-80
2023/07/27 06:22:31;;;;;;;0.50;0.32;;;;;;;20.39;100.00;100533.41;10540101;28;20036;-82
2023/07/27 06:27:32;;;;;;;0.65;0.45;;;;;;;20.99;100.00;100536.50;10499299;28;20052;-81
2023/07/27 06:32:34;;;;;;;0.38;0.10;;;;;;;20.86;100.00;100533.28;10497139;28;20090;-81
2023/07/27 06:37:36;;;;;;;0.80;0.73;;;;;;;21.07;100.00;100533.69;10521636;28;20415;-82
2023/07/27 06:42:38;;;;;;;0.20;0.20;;;;;;;20.73;100.00;100526.63;10521384;28;20066;-83
2023/07/27 06:47:42;;;;;;;0.10;0.10;;;;;;;21.16;100.00;100523.00;10478783;28;20281;-81
2023/07/27 06:52:44;;;;;;;0.10;0.10;;;;;;;21.33;100.00;100513.84;10480655;28;20084;-82
2023/07/27 06:57:46;;;;;;;0.40;0.38;;;;;;;21.61;100.00;100507.94;10533750;28;20487;-82
2023/07/27 07:02:48;;;;;;;0.13;0.10;;;;;;;21.13;100.00;100504.72;10505572;28;20139;-82
2023/07/27 07:07:50;;;;;;;0.00;0.00;;;;;;;21.50;100.00;100509.03;10504476;28;20052;-81
2023/07/27 07:12:52;;;;;;;0.40;0.30;;;;;;;21.21;100.00;100494.91;10521446;28;20123;-81
2023/07/27 07:17:54;;;;;;;0.35;0.35;;;;;;;21.31;100.00;100499.94;10520802;28;20501;-82
2023/07/27 07:22:55;;;;;;;0.75;0.38;;;;;;;21.66;100.00;100485.06;10498322;28;20044;-82
2023/07/27 07:27:57;;;;;;;0.10;0.00;;;;;;;21.28;100.00;100481.66;10486801;28;20137;-82
2023/07/27 07:32:59;;;;;;;0.00;0.00;;;;;;;21.18;100.00;100483.66;10524320;28;20036;-82
2023/07/27 07:38:00;;;;;;;0.20;0.20;;;;;;;21.61;100.00;100477.31;10526404;28;20476;-82
2023/07/27 07:43:02;;;;;;;0.20;0.15;;;;;;;21.29;100.00;100467.66;10508371;28;20399;-81
2023/07/27 07:48:04;;;;;;;0.00;0.00;;;;;;;21.54;100.00;100460.88;10533903;28;20521;-82
2023/07/27 07:53:06;;;;;;;0.10;0.10;;;;;;;21.92;100.00;100450.25;10505687;28;20450;-82
2023/07/27 07:58:10;;;;;;;0.20;0.15;;;;;;;21.41;100.00;100462.09;10515351;28;20101;-82
2023/07/27 08:03:12;;;;;;;0.43;0.43;;;;;;;21.90;100.00;100440.72;10526811;28;20135;-82
2023/07/27 08:08:14;;;;;;;0.03;0.00;;;;;;;22.15;100.00;100438.25;10511978;28;20052;-82
2023/07/27 08:13:15;;;;;;;0.00;0.00;;;;;;;22.57;100.00;100437.00;10524518;28;20043;-82
2023/07/27 08:18:17;;;;;;;0.10;0.10;;;;;;;22.89;100.00;100427.25;10507698;28;20052;-82
2023/07/27 08:23:19;;;;;;;0.63;0.10;;;;;;;22.12;100.00;100428.69;10523267;28;20857;-81
2023/07/27 08:28:21;;;;;;;0.22;0.00;;;;;;;22.30;100.00;100426.44;10524086;28;20054;-81
2023/07/27 08:33:22;;;;;;;0.03;0.03;;;;;;;22.37;100.00;100411.34;10524689;28;20040;-81
2023/07/27 08:38:24;;;;;;;0.10;0.10;;;;;;;22.31;100.00;100415.00;10522512;28;20097;-82
2023/07/27 08:43:27;;;;;;;0.00;0.00;;;;;;;22.12;100.00;100410.34;10507213;28;20073;-80
2023/07/27 08:48:29;;;;;;;0.20;0.15;;;;;;;22.27;100.00;100405.53;10523663;28;20139;-81
2023/07/27 08:53:30;;;;;;;1.13;0.15;;;;;;;23.06;100.00;100397.78;10521695;28;20058;-82
2023/07/27 08:58:32;;;;;;;0.00;0.00;;;;;;;22.24;100.00;100402.97;10515183;28;20044;-80
2023/07/27 09:03:34;;;;;;;0.10;0.10;;;;;;;22.99;100.00;100389.22;10539878;28;20036;-82
2023/07/27 09:08:36;;;;;;;0.13;0.13;;;;;;;22.19;100.00;100395.25;10504866;28;20130;-80
2023/07/27 09:13:37;;;;;;;0.10;0.10;;;;;;;23.26;100.00;100389.22;10503929;28;20044;-81
2023/07/27 09:18:39;;;;;;;0.00;0.00;;;;;;;22.90;100.00;100397.41;10516445;28;20563;-81
2023/07/27 09:23:41;;;;;;;0.00;0.00;;;;;;;23.20;100.00;100395.56;10529867;28;20131;-82
2023/07/27 09:28:42;;;;;;;0.00;0.00;;;;;;;23.72;100.00;100387.53;10521319;28;20056;-81
2023/07/27 09:33:44;;;;;;;0.25;0.10;;;;;;;23.42;100.00;100385.13;10521604;28;20075;-81
2023/07/27 09:38:46;;;;;;;0.00;0.00;;;;;;;23.81;100.00;100380.22;10521709;28;20078;-81
2023/07/27 09:43:48;;;;;;;0.20;0.20;;;;;;;23.63;100.00;100372.13;10522016;28;20388;-80
2023/07/27 09:48:51;;;;;;;0.40;0.15;;;;;;;22.89;100.00;100386.06;10521728;28;20048;-80
2023/07/27 09:53:54;;;;;;;0.10;0.10;;;;;;;23.62;100.00;100383.56;10536702;28;20044;-82
2023/07/27 09:58:55;;;;;;;0.22;0.00;;;;;;;23.58;100.00;100369.66;10517256;28;20186;-83
2023/07/27 10:04:00;;;;;;;0.50;0.30;;;;;;;23.61;100.00;100376.56;10504196;28;20051;-83
2023/07/27 10:09:16;;;;;;;0.35;0.17;;;;;;;22.84;100.00;100385.38;10525643;28;20048;-83
2023/07/27 10:14:19;;;;;;;0.65;0.43;;;;;;;23.05;100.00;100381.13;10511518;28;20401;-83
2023/07/27 10:19:21;;;;;;;0.30;0.22;;;;;;;22.88;100.00;100388.75;10502683;28;20131;-84
2023/07/27 10:24:25;;;;;;;0.35;0.25;;;;;;;23.39;100.00;100379.13;10501921;28;20036;-83
2023/07/27 10:29:27;;;;;;;0.05;0.05;;;;;;;23.40;100.00;100376.44;10500406;28;20093;-83
2023/07/27 10:34:30;;;;;;;0.52;0.32;;;;;;;23.92;100.00;100367.53;10510966;28;20044;-83
2023/07/27 10:39:52;;;;;;;0.17;0.17;;;;;;;23.68;100.00;100375.44;10520063;28;20042;-83
2023/07/27 10:44:58;;;;;;;1.13;0.30;;;;;;;24.00;100.00;100376.03;10515297;28;20055;-83
2023/07/27 10:50:00;;;;;;;0.75;0.20;;;;;;;23.54;100.00;100375.94;10514390;28;20040;-84
2023/07/27 10:55:04;;;;;;;0.17;0.17;;;;;;;23.38;100.00;100370.38;10513821;28;20052;-83
2023/07/27 11:00:08;;;;;;;0.45;0.20;;;;;;;24.32;100.00;100365.97;10500759;28;20035;-83
2023/07/27 11:05:11;;;;;;;0.13;0.10;;;;;;;24.17;100.00;100361.31;10510012;28;20047;-83
2023/07/27 11:10:16;;;;;;;0.22;0.13;;;;;;;24.18;100.00;100353.41;10509531;28;20089;-84
2023/07/27 11:15:24;;;;;;;0.40;0.30;;;;;;;23.83;100.00;100357.34;10507028;28;20048;-82
2023/07/27 11:20:28;;;;;;;0.10;0.00;;;;;;;23.85;100.00;100356.38;10510998;28;20036;-82
2023/07/27 11:25:32;;;;;;;0.52;0.22;;;;;;;24.16;100.00;100357.00;10511962;28;20052;-82
2023/07/27 11:30:36;;;;;;;0.13;0.10;;;;;;;24.04;100.00;100359.19;10526659;28;20044;-83
2023/07/27 11:35:45;;;;;;;0.25;0.25;;;;;;;24.35;100.00;100350.06;10492188;28;20051;-83
2023/07/27 11:40:49;;;;;;;0.50;0.17;;;;;;;24.28;100.00;100348.63;10492940;28;20045;-82
2023/07/27 11:45:57;;;;;;;0.20;0.20;;;;;;;23.63;100.00;100351.09;10500825;28;20040;-82
2023/07/27 11:51:00;;;;;;;0.47;0.40;;;;;;;24.39;100.00;100343.75;10492129;28;20048;-82
2023/07/27 11:56:08;;;;;;;0.13;0.13;;;;;;;24.27;100.00;100339.00;10496536;28;20044;-83
2023/07/27 12:01:11;;;;;;;0.20;0.20;;;;;;;23.94;100.00;100344.66;10521254;28;20068;-83
2023/07/27 12:06:13;;;;;;;0.55;0.10;;;;;;;24.12;100.00;100347.50;10498314;28;20490;-83
2023/07/27 12:11:14;;;;;;;0.00;0.00;;;;;;;24.07;100.00;100352.94;10492155;28;20044;-82
2023/07/27 12:16:19;;;;;;;0.17;0.10;;;;;;;24.39;100.00;100345.53;10525517;28;20403;-83
2023/07/27 12:21:25;;;;;;;0.00;0.00;;;;;;;24.73;100.00;100332.78;10504030;28;20415;-82
2023/07/27 12:26:29;;;;;;;0.20;0.10;;;;;;;24.80;100.00;100340.34;10501555;28;20608;-83
2023/07/27 12:31:33;;;;;;;0.10;0.10;;;;;;;24.60;100.00;100337.69;10514987;28;20044;-83
2023/07/27 12:36:37;;;;;;;0.00;0.00;;;;;;;24.31;100.00;100342.38;10501473;28;20063;-83
2023/07/27 12:41:39;;;;;;;0.00;0.00;;;;;;;24.55;100.00;100337.84;10496420;28;20133;-82
2023/07/27 12:46:41;;;;;;;0.30;0.30;;;;;;;24.64;100.00;100340.13;10498241;28;20135;-82
2023/07/27 12:51:43;;;;;;;0.15;0.00;;;;;;;24.37;100.00;100326.31;10510578;28;20055;-83
2023/07/27 12:56:44;;;;;;;0.20;0.15;;;;;;;24.55;100.00;100327.31;10500398;28;20040;-83
2023/07/27 13:01:46;;;;;;;0.25;0.00;;;;;;;24.70;100.00;100329.34;10498873;28;20479;-82
2023/07/27 13:06:48;;;;;;;0.77;0.30;;;;;;;24.66;100.00;100322.50;10515635;28;20044;-81
2023/07/27 13:11:50;;;;;;;0.10;0.10;;;;;;;24.00;100.00;100333.94;10500338;28;20047;-82
2023/07/27 13:16:51;;;;;;;0.00;0.00;;;;;;;24.54;100.00;100330.88;10512398;28;20040;-83
2023/07/27 13:21:54;;;;;;;0.10;0.10;;;;;;;25.63;100.00;100325.31;10514664;28;20044;-82
2023/07/27 13:26:56;;;;;;;0.00;0.00;;;;;;;25.06;100.00;100329.63;10497041;28;20055;-82
2023/07/27 13:31:57;;;;;;;0.00;0.00;;;;;;;24.95;100.00;100332.69;10507288;28;20052;-81
2023/07/27 13:37:02;;;;;;;0.75;0.10;;;;;;;25.24;100.00;100326.16;10511633;28;20134;-83
2023/07/27 13:42:04;;;;;;;0.52;0.30;;;;;;;25.58;100.00;100331.72;10507950;28;20040;-81
2023/07/27 13:47:06;;;;;;;0.40;0.30;;;;;;;25.37;100.00;100334.38;10517489;28;20083;-81
2023/07/27 13:52:07;;;;;;;0.00;0.00;;;;;;;25.58;100.00;100327.28;10504423;28;20061;-81
2023/07/27 13:57:09;;;;;;;0.00;0.00;;;;;;;25.10;100.00;100339.09;10503264;28;20130;-81
2023/07/27 14:02:12;;;;;;;0.15;0.15;;;;;;;25.37;100.00;100328.25;10502901;28;20377;-81
2023/07/27 14:07:14;;;;;;;0.10;0.10;;;;;;;25.53;100.00;100334.56;10504810;28;20060;-81
2023/07/27 14:12:15;;;;;;;1.95;0.10;;;;;;;25.28;100.00;100327.72;10512680;28;20046;-82
2023/07/27 14:17:17;;;;;;;0.32;0.30;;;;;;;25.22;100.00;100322.72;10506909;28;20047;-81
2023/07/27 14:22:21;;;;;;;0.20;0.20;;;;;;;25.25;100.00;100322.59;10516600;28;20048;-82
2023/07/27 14:27:23;;;;;;;0.17;0.17;;;;;;;25.44;100.00;100327.94;10485606;28;20055;-82
2023/07/27 14:32:38;;;;;;;0.65;0.40;;;;;;;25.55;100.00;100335.34;10509162;28;20032;-81
2023/07/27 14:37:41;;;;;;;0.20;0.05;;;;;;;25.24;100.00;100341.97;10503024;28;20047;-81
2023/07/27 14:42:43;;;;;;;0.00;0.00;;;;;;;25.51;100.00;100344.31;10524895;28;20117;-81
2023/07/27 14:47:45;;;;;;;0.45;0.30;;;;;;;25.54;100.00;100344.19;10486152;28;20051;-81
2023/07/27 14:52:47;;;;;;;0.28;0.15;;;;;;;24.74;100.00;100360.84;10509315;28;20028;-80
2023/07/27 14:57:50;;;;;;;0.43;0.20;;;;;;;25.08;100.00;100354.13;10519388;28;20114;-81
2023/07/27 15:03:00;;;;;;;0.00;0.00;;;;;;;25.34;100.00;100345.06;10508450;28;20411;-81
2023/07/27 15:08:07;;;;;;;0.00;0.00;;;;;;;25.57;100.00;100351.97;10484643;28;20084;-81
2023/07/27 15:13:10;;;;;;;0.55;0.30;;;;;;;24.76;100.00;100353.75;10510301;28;20040;-81
2023/07/27 15:18:13;;;;;;;0.10;0.08;;;;;;;25.51;100.00;100346.97;10513476;28;20793;-81
2023/07/27 15:23:15;;;;;;;0.22;0.20;;;;;;;25.23;100.00;100345.53;10508048;28;20051;-81
2023/07/27 15:28:17;;;;;;;0.20;0.20;;;;;;;25.07;100.00;100357.66;10507039;28;20036;-82
2023/07/27 15:33:19;;;;;;;0.73;0.73;;;;;;;25.19;100.00;100354.53;10516927;28;20036;-81
2023/07/27 15:38:22;;;;;;;0.00;0.00;;;;;;;25.24;100.00;100357.81;10514403;28;20410;-82
2023/07/27 15:43:24;;;;;;;0.00;0.00;;;;;;;25.42;100.00;100352.69;10506018;28;20040;-81
2023/07/27 15:48:26;;;;;;;0.10;0.10;;;;;;;24.88;100.00;100361.13;10500140;28;20056;-81
2023/07/27 15:53:28;;;;;;;0.40;0.30;;;;;;;25.23;100.00;100348.19;10525640;28;20560;-82
2023/07/27 15:58:31;;;;;;;0.00;0.00;;;;;;;25.61;100.00;100353.53;10512279;28;20044;-81
2023/07/27 16:03:36;;;;;;;0.08;0.03;;;;;;;25.03;100.00;100363.09;10513219;28;20036;-81
2023/07/27 16:08:38;;;;;;;0.15;0.10;;;;;;;24.51;100.00;100371.38;10520832;28;20047;-80
2023/07/27 16:13:40;;;;;;;0.10;0.10;;;;;;;24.37;100.00;100371.06;10520222;28;20032;-81
2023/07/27 16:18:43;;;;;;;0.10;0.10;;;;;;;24.67;100.00;100369.00;10497149;28;20050;-81
2023/07/27 16:23:45;;;;;;;0.10;0.10;;;;;;;24.94;100.00;100362.63;10521248;28;20044;-82
2023/07/27 16:28:47;;;;;;;0.28;0.28;;;;;;;24.88;100.00;100374.28;10506224;28;20097;-82
2023/07/27 16:33:49;;;;;;;0.05;0.05;;;;;;;24.70;100.00;100366.22;10514538;28;20072;-81
2023/07/27 16:38:51;;;;;;;0.00;0.00;;;;;;;24.61;100.00;100366.56;10505417;28;20044;-81
2023/07/27 16:43:53;;;;;;;0.52;0.10;;;;;;;24.98;100.00;100369.47;10511674;28;20520;-81
2023/07/27 16:48:55;;;;;;;0.00;0.00;;;;;;;25.09;100.00;100361.09;10535260;28;20048;-81
2023/07/27 16:53:57;;;;;;;0.15;0.00;;;;;;;24.95;100.00;100359.06;10501506;28;20427;-81
2023/07/27 16:59:01;;;;;;;0.10;0.10;;;;;;;24.88;100.00;100369.03;10515947;28;20157;-81
2023/07/27 17:04:03;;;;;;;0.05;0.03;;;;;;;24.82;100.00;100374.56;10508455;28;20735;-81
2023/07/27 17:09:05;;;;;;;0.00;0.00;;;;;;;24.28;100.00;100380.19;10520856;28;20138;-81
2023/07/27 17:14:07;;;;;;;0.10;0.10;;;;;;;24.80;100.00;100381.66;10510727;28;20114;-81
2023/07/27 17:19:09;;;;;;;0.00;0.00;;;;;;;25.19;100.00;100375.59;10533774;28;20040;-81
2023/07/27 17:24:11;;;;;;;0.00;0.00;;;;;;;24.95;100.00;100375.75;10518635;28;20440;-81
2023/07/27 17:29:13;;;;;;;0.00;0.00;;;;;;;24.66;100.00;100385.72;10531695;28;20044;-81
2023/07/27 17:34:15;;;;;;;0.00;0.00;;;;;;;24.96;100.00;100366.03;10513325;28;20073;-81
2023/07/27 17:39:19;;;;;;;0.00;0.00;;;;;;;24.60;100.00;100378.06;10506904;28;20047;-81
2023/07/27 17:44:22;;;;;;;0.00;0.00;;;;;;;24.37;100.00;100386.88;10516869;28;20040;-81
2023/07/27 17:49:25;;;;;;;0.20;0.00;;;;;;;24.60;100.00;100392.97;10511462;28;20503;-81
2023/07/27 17:54:27;;;;;;;0.00;0.00;;;;;;;24.16;100.00;100385.97;10513122;28;20036;-81
2023/07/27 17:59:29;;;;;;;0.00;0.00;;;;;;;24.37;100.00;100389.50;10507864;28;20048;-81
2023/07/27 18:04:32;;;;;;;0.00;0.00;;;;;;;24.28;100.00;100390.72;10491198;28;20093;-81
2023/07/27 18:09:36;;;;;;;0.10;0.10;;;;;;;24.77;100.00;100384.41;10517269;28;20055;-80
2023/07/27 18:14:38;;;;;;;0.00;0.00;;;;;;;24.30;100.00;100383.63;10488693;28;20040;-80
2023/07/27 18:19:40;;;;;;;0.00;0.00;;;;;;;24.58;100.00;100387.78;10502827;28;20044;-80
2023/07/27 18:24:42;;;;;;;0.10;0.00;;;;;;;24.61;100.00;100387.63;10494612;28;20052;-80
2023/07/27 18:29:44;;;;;;;0.13;0.10;;;;;;;24.43;100.00;100398.94;10504459;28;20056;-80
2023/07/27 18:34:46;;;;;;;0.00;0.00;;;;;;;24.22;100.00;100390.97;10499726;28;20462;-80
2023/07/27 18:39:48;;;;;;;0.00;0.00;;;;;;;24.56;100.00;100392.25;10490227;28;20044;-80
2023/07/27 18:44:50;;;;;;;0.20;0.10;;;;;;;24.90;100.00;100388.25;10509102;28;20273;-80
2023/07/27 18:49:52;;;;;;;0.00;0.00;;;;;;;24.79;100.00;100395.75;10493480;28;20157;-81
2023/07/27 18:54:58;;;;;;;0.05;0.05;;;;;;;24.29;100.00;100395.06;10508561;28;20044;-81
2023/07/27 19:00:00;;;;;;;0.00;0.00;;;;;;;24.19;100.00;100402.47;10487551;28;20514;-81
2023/07/27 19:05:02;;;;;;;0.00;0.00;;;;;;;23.85;100.00;100401.09;10490051;28;20043;-81
2023/07/27 19:10:04;;;;;;;0.00;0.00;;;;;;;24.23;100.00;100397.97;10488549;28;20059;-80
2023/07/27 19:15:08;;;;;;;0.00;0.00;;;;;;;24.20;100.00;100398.06;10506758;28;20036;-81
2023/07/27 19:20:10;;;;;;;0.08;0.08;;;;;;;24.03;100.00;100398.72;10492285;28;20109;-80
2023/07/27 19:25:12;;;;;;;0.00;0.00;;;;;;;24.04;100.00;100406.56;10497484;28;20049;-83
2023/07/27 19:30:17;;;;;;;0.38;0.20;;;;;;;23.56;100.00;100429.31;10512271;28;20048;-81
2023/07/27 19:35:20;;;;;;;0.00;0.00;;;;;;;23.90;100.00;100424.59;10518408;28;20067;-81
2023/07/27 19:40:22;;;;;;;0.10;0.10;;;;;;;23.78;100.00;100433.81;10529145;28;20047;-81
2023/07/27 19:45:24;;;;;;;0.10;0.10;;;;;;;23.72;100.00;100419.09;10529822;28;20047;-81
2023/07/27 19:50:25;;;;;;;0.28;0.22;;;;;;;24.06;100.00;100432.78;10517488;28;20047;-82
2023/07/27 19:55:27;;;;;;;0.00;0.00;;;;;;;23.88;100.00;100436.94;10499818;28;20157;-82
2023/07/27 20:00:29;;;;;;;0.60;0.25;;;;;;;23.89;100.00;100438.66;10520739;28;20048;-81
2023/07/27 20:05:31;;;;;;;0.20;0.20;;;;;;;23.84;100.00;100443.25;10513507;28;20474;-82
2023/07/27 20:10:32;;;;;;;0.30;0.30;;;;;;;23.99;100.00;100440.09;10509589;28;20044;-81
2023/07/27 20:15:34;;;;;;;0.17;0.13;;;;;;;23.78;100.00;100452.22;10498933;28;20044;-82
2023/07/27 20:20:37;;;;;;;0.40;0.20;;;;;;;23.82;100.00;100450.34;10534455;28;20054;-82
2023/07/27 20:25:40;;;;;;;0.00;0.00;;;;;;;24.35;100.00;100452.75;10514965;28;20044;-81
2023/07/27 20:30:42;;;;;;;1.05;0.20;;;;;;;24.66;100.00;100450.66;10499171;28;20048;-81
2023/07/27 20:35:44;;;;;;;0.00;0.00;;;;;;;24.38;100.00;100438.59;10490133;28;20555;-81
2023/07/27 20:41:11;;;;;;;0.35;0.30;;;;;;;23.81;100.00;100445.97;10470028;28;20072;-83
2023/07/27 20:46:13;;;;;;;1.67;0.22;;;;;;;23.99;100.00;100440.09;10496787;28;20058;-82
2023/07/27 20:51:14;;;;;;;0.05;0.00;;;;;;;24.15;100.00;100431.59;10498180;28;20130;-81
2023/07/27 20:56:18;;;;;;;0.60;0.20;;;;;;;24.15;100.00;100436.88;10516578;28;20044;-81
2023/07/27 21:01:20;;;;;;;0.20;0.10;;;;;;;23.61;100.00;100437.06;10498170;28;20509;-82
2023/07/27 21:06:21;;;;;;;0.20;0.20;;;;;;;24.20;100.00;100432.28;10510635;28;20040;-81
2023/07/27 21:11:23;;;;;;;0.95;0.60;;;;;;;23.67;100.00;100438.63;10513667;28;20080;-81
2023/07/27 21:16:25;;;;;;;0.30;0.22;;;;;;;24.07;100.00;100424.88;10515945;28;20054;-81
2023/07/27 21:21:30;;;;;;;0.38;0.38;;;;;;;24.26;100.00;100432.03;10490403;28;20072;-81
2023/07/27 21:26:32;;;;;;;1.08;0.35;;;;;;;23.87;100.00;100427.34;10502151;28;20481;-82
2023/07/27 21:31:34;;;;;;;0.68;0.22;;;;;;;24.55;100.00;100430.03;10498847;28;20040;-81
2023/07/27 21:36:36;;;;;;;0.20;0.20;;;;;;;24.27;100.00;100430.28;10497945;28;20142;-81
2023/07/27 21:41:38;;;;;;;0.20;0.10;;;;;;;24.24;100.00;100426.84;10499776;28;20398;-81
2023/07/27 21:46:40;;;;;;;0.35;0.30;;;;;;;24.01;100.00;100429.50;10517389;28;20048;-81
2023/07/27 21:51:41;;;;;;;0.15;0.10;;;;;;;24.30;100.00;100430.13;10483427;28;20089;-81
2023/07/27 21:56:43;;;;;;;0.28;0.20;;;;;;;23.94;100.00;100431.47;10498773;28;20071;-81
2023/07/27 22:01:45;;;;;;;0.60;0.40;;;;;;;24.17;100.00;100430.63;10497120;28;20402;-81
2023/07/27 22:06:47;;;;;;;0.10;0.10;;;;;;;24.54;100.00;100430.94;10482651;28;20514;-81
2023/07/27 22:11:48;;;;;;;0.15;0.15;;;;;;;23.69;100.00;100439.38;10484007;28;20048;-81
2023/07/27 22:16:50;;;;;;;1.05;0.35;;;;;;;23.80;100.00;100437.25;10507711;28;20277;-80
2023/07/27 22:21:52;;;;;;;1.75;0.30;;;;;;;24.36;100.00;100436.03;10514678;28;20482;-81
2023/07/27 22:26:54;;;;;;;0.57;0.32;;;;;;;24.20;100.00;100434.91;10503995;28;20150;-80
2023/07/27 22:31:55;;;;;;;0.22;0.22;;;;;;;24.46;100.00;100435.69;10487661;28;20040;-81
2023/07/27 22:36:57;;;;;;;1.50;0.47;;;;;;;24.69;100.00;100440.03;10519219;28;20483;-81
2023/07/27 22:41:59;;;;;;;0.43;0.28;;;;;;;24.70;100.00;100428.59;10505262;28;20048;-80
2023/07/27 22:47:00;;;;;;;0.20;0.20;;;;;;;24.61;100.00;100429.78;10496185;28;20047;-81
2023/07/27 22:52:03;;;;;;;0.17;0.17;;;;;;;24.03;100.00;100428.50;10486636;28;20565;-81
2023/07/27 22:57:05;;;;;;;0.00;0.00;;;;;;;24.33;100.00;100415.09;10503515;28;20048;-81